sensor_id;sensor_type;location;lat;lon;timestamp;pressure;altitude;pressure_sealevel;temperature;humidity
13013;BME280;22580;57.670;12.006;2022-09-23T00:00:35;101699.22;;;15.33;100.00
13013;BME280;22580;57.670;12.006;2022-09-23T00:03:03;101700.53;;;15.28;100.00
13013;BME280;22580;57.670;12.006;2022-09-23T00:05:30;101674.75;;;15.48;100.00
13013;BME280;22580;57.670;12.006;2022-09-23T00:07:58;101682.63;;;15.51;100.00
13013;BME280;22580;57.670;12.006;2022-09-23T00:10:27;101652.28;;;15.25;100.00
13013;BME280;22580;57.670;12.006;2022-09-23T00:12:57;101694.84;;;15.44;100.00
13013;BME280;22580;57.670;12.006;2022-09-23T00:15:25;101671.63;;;15.30;100.00
13013;BME280;22580;57.670;12.006;2022-09-23T00:17:56;101680.81;;;15.03;100.00
13013;BME280;22580;57.670;12.006;2022-09-23T00:20:23;101666.31;;;15.17;100.00
13013;BME280;22580;57.670;12.006;2022-09-23T00:22:50;101684.44;;;15.15;100.00
13013;BME280;22580;57.670;12.006;2022-09-23T00:25:18;101657.59;;;15.37;100.00
13013;BME280;22580;57.670;12.006;2022-09-23T00:27:45;101680.34;;;15.57;100.00
13013;BME280;22580;57.670;12.006;2022-09-23T00:30:14;101678.84;;;15.64;100.00
13013;BME280;22580;57.670;12.006;2022-09-23T00:32:42;101646.94;;;15.36;100.00
13013;BME280;22580;57.670;12.006;2022-09-23T00:35:09;101673.28;;;15.44;100.00
13013;BME280;22580;57.670;12.006;2022-09-23T00:37:36;101645.16;;;15.24;100.00
13013;BME280;22580;57.670;12.006;2022-09-23T00:40:04;101670.06;;;15.38;100.00
13013;BME280;22580;57.670;12.006;2022-09-23T00:42:32;101665.66;;;15.37;100.00
13013;BME280;22580;57.670;12.006;2022-09-23T00:45:00;101658.78;;;15.33;100.00
13013;BME280;22580;57.670;12.006;2022-09-23T00:47:32;101658.13;;;15.54;100.00
13013;BME280;22580;57.670;12.006;2022-09-23T00:50:05;101646.31;;;15.32;100.00
13013;BME280;22580;57.670;12.006;2022-09-23T00:52:35;101657.50;;;15.50;100.00
13013;BME280;22580;57.670;12.006;2022-09-23T00:55:06;101659.97;;;15.53;100.00
13013;BME280;22580;57.670;12.006;2022-09-23T00:57:35;101651.13;;;15.51;100.00
13013;BME280;22580;57.670;12.006;2022-09-23T01:00:04;101652.97;;;15.51;100.00
13013;BME280;22580;57.670;12.006;2022-09-23T01:02:33;101656.03;;;15.46;100.00
13013;BME280;22580;57.670;12.006;2022-09-23T01:05:04;101652.59;;;15.44;100.00
13013;BME280;22580;57.670;12.006;2022-09-23T01:07:31;101632.56;;;15.24;100.00
13013;BME280;22580;57.670;12.006;2022-09-23T01:09:59;101645.44;;;15.32;100.00
13013;BME280;22580;57.670;12.006;2022-09-23T01:12:41;101639.94;;;15.33;100.00
13013;BME280;22580;57.670;12.006;2022-09-23T01:15:14;101642.19;;;15.51;100.00
13013;BME280;22580;57.670;12.006;2022-09-23T01:17:49;101646.94;;;15.36;100.00
13013;BME280;22580;57.670;12.006;2022-09-23T01:20:34;101640.09;;;15.43;100.00
13013;BME280;22580;57.670;12.006;2022-09-23T01:23:21;101639.72;;;15.48;100.00
13013;BME280;22580;57.670;12.006;2022-09-23T01:26:16;101635.78;;;15.05;100.00
13013;BME280;22580;57.670;12.006;2022-09-23T01:29:02;101626.94;;;15.27;100.00
13013;BME280;22580;57.670;12.006;2022-09-23T01:31:42;101616.09;;;15.05;100.00
13013;BME280;22580;57.670;12.006;2022-09-23T01:34:13;101619.88;;;15.37;100.00
13013;BME280;22580;57.670;12.006;2022-09-23T01:36:48;101628.41;;;15.78;100.00
13013;BME280;22580;57.670;12.006;2022-09-23T01:39:22;101616.06;;;14.70;100.00
13013;BME280;22580;57.670;12.006;2022-09-23T01:41:56;101618.22;;;15.24;100.00
13013;BME280;22580;57.670;12.006;2022-09-23T01:44:30;101599.00;;;15.17;100.00
13013;BME280;22580;57.670;12.006;2022-09-23T01:47:04;101619.22;;;15.23;100.00
13013;BME280;22580;57.670;12.006;2022-09-23T01:49:40;101609.34;;;15.46;100.00
13013;BME280;22580;57.670;12.006;2022-09-23T01:52:12;101606.09;;;14.59;100.00
13013;BME280;22580;57.670;12.006;2022-09-23T01:54:46;101611.94;;;14.53;100.00
13013;BME280;22580;57.670;12.006;2022-09-23T01:57:18;101598.31;;;15.37;100.00
13013;BME280;22580;57.670;12.006;2022-09-23T01:59:50;101599.94;;;15.62;100.00
13013;BME280;22580;57.670;12.006;2022-09-23T02:02:25;101591.38;;;15.68;100.00
13013;BME280;22580;57.670;12.006;2022-09-23T02:04:59;101598.50;;;15.81;100.00
13013;BME280;22580;57.670;12.006;2022-09-23T02:07:32;101576.19;;;15.67;100.00
13013;BME280;22580;57.670;12.006;2022-09-23T02:10:06;101601.69;;;15.74;100.00
13013;BME280;22580;57.670;12.006;2022-09-23T02:12:37;101590.53;;;15.68;100.00
13013;BME280;22580;57.670;12.006;2022-09-23T02:15:09;101572.13;;;15.51;100.00
13013;BME280;22580;57.670;12.006;2022-09-23T02:17:43;101581.66;;;15.44;100.00
13013;BME280;22580;57.670;12.006;2022-09-23T02:20:13;101584.19;;;15.58;100.00
13013;BME280;22580;57.670;12.006;2022-09-23T02:22:50;101575.63;;;15.29;100.00
13013;BME280;22580;57.670;12.006;2022-09-23T02:25:21;101582.66;;;15.54;100.00
13013;BME280;22580;57.670;12.006;2022-09-23T02:27:55;101575.22;;;15.57;100.00
13013;BME280;22580;57.670;12.006;2022-09-23T02:30:25;101571.69;;;15.57;100.00
13013;BME280;22580;57.670;12.006;2022-09-23T02:33:01;101555.09;;;15.39;100.00
13013;BME280;22580;57.670;12.006;2022-09-23T02:35:34;101566.03;;;15.71;100.00
13013;BME280;22580;57.670;12.006;2022-09-23T02:38:15;101555.38;;;15.69;100.00
13013;BME280;22580;57.670;12.006;2022-09-23T02:40:55;101563.22;;;15.72;100.00
13013;BME280;22580;57.670;12.006;2022-09-23T02:43:26;101568.47;;;15.52;100.00
13013;BME280;22580;57.670;12.006;2022-09-23T02:46:00;101567.31;;;15.32;100.00
13013;BME280;22580;57.670;12.006;2022-09-23T02:48:32;101524.16;;;14.98;100.00
13013;BME280;22580;57.670;12.006;2022-09-23T02:51:00;101562.56;;;15.35;100.00
13013;BME280;22580;57.670;12.006;2022-09-23T02:53:30;101564.91;;;15.51;100.00
13013;BME280;22580;57.670;12.006;2022-09-23T02:55:59;101564.16;;;15.49;100.00
13013;BME280;22580;57.670;12.006;2022-09-23T02:58:26;101562.97;;;15.64;100.00
13013;BME280;22580;57.670;12.006;2022-09-23T03:00:59;101561.25;;;15.63;100.00
13013;BME280;22580;57.670;12.006;2022-09-23T03:03:39;101547.88;;;15.62;100.00
13013;BME280;22580;57.670;12.006;2022-09-23T03:06:17;101559.53;;;15.73;100.00
13013;BME280;22580;57.670;12.006;2022-09-23T03:08:52;101551.84;;;15.58;100.00
13013;BME280;22580;57.670;12.006;2022-09-23T03:11:22;101543.34;;;15.62;100.00
13013;BME280;22580;57.670;12.006;2022-09-23T03:13:59;101548.88;;;15.72;100.00
13013;BME280;22580;57.670;12.006;2022-09-23T03:16:32;101543.97;;;15.88;100.00
13013;BME280;22580;57.670;12.006;2022-09-23T03:19:15;101552.44;;;15.84;100.00
13013;BME280;22580;57.670;12.006;2022-09-23T03:21:48;101556.59;;;15.88;100.00
13013;BME280;22580;57.670;12.006;2022-09-23T03:24:17;101547.88;;;15.84;100.00
13013;BME280;22580;57.670;12.006;2022-09-23T03:26:46;101511.38;;;15.80;100.00
13013;BME280;22580;57.670;12.006;2022-09-23T03:29:16;101540.78;;;15.94;100.00
13013;BME280;22580;57.670;12.006;2022-09-23T03:31:44;101533.91;;;15.90;100.00
13013;BME280;22580;57.670;12.006;2022-09-23T03:34:17;101519.84;;;15.64;100.00
13013;BME280;22580;57.670;12.006;2022-09-23T03:36:50;101532.31;;;15.99;100.00
13013;BME280;22580;57.670;12.006;2022-09-23T03:39:28;101533.03;;;16.01;100.00
13013;BME280;22580;57.670;12.006;2022-09-23T03:42:00;101512.81;;;15.95;100.00
13013;BME280;22580;57.670;12.006;2022-09-23T03:44:29;101523.38;;;15.98;100.00
13013;BME280;22580;57.670;12.006;2022-09-23T03:47:00;101524.97;;;15.67;100.00
13013;BME280;22580;57.670;12.006;2022-09-23T03:49:33;101527.66;;;15.90;100.00
13013;BME280;22580;57.670;12.006;2022-09-23T03:52:01;101530.13;;;15.93;100.00
13013;BME280;22580;57.670;12.006;2022-09-23T03:54:28;101525.81;;;15.90;100.00
13013;BME280;22580;57.670;12.006;2022-09-23T03:56:55;101532.56;;;15.73;100.00
13013;BME280;22580;57.670;12.006;2022-09-23T03:59:24;101522.16;;;15.69;100.00
13013;BME280;22580;57.670;12.006;2022-09-23T04:01:52;101512.97;;;15.83;100.00
13013;BME280;22580;57.670;12.006;2022-09-23T04:04:19;101517.84;;;15.89;100.00
13013;BME280;22580;57.670;12.006;2022-09-23T04:06:48;101525.09;;;15.77;100.00
13013;BME280;22580;57.670;12.006;2022-09-23T04:09:15;101515.41;;;15.86;100.00
13013;BME280;22580;57.670;12.006;2022-09-23T04:11:42;101507.94;;;15.78;100.00
13013;BME280;22580;57.670;12.006;2022-09-23T04:14:08;101512.59;;;15.65;100.00
13013;BME280;22580;57.670;12.006;2022-09-23T04:16:36;101486.75;;;15.62;100.00
13013;BME280;22580;57.670;12.006;2022-09-23T04:19:03;101506.84;;;15.81;100.00
13013;BME280;22580;57.670;12.006;2022-09-23T04:21:30;101501.06;;;15.85;100.00
13013;BME280;22580;57.670;12.006;2022-09-23T04:23:59;101500.94;;;15.98;100.00
13013;BME280;22580;57.670;12.006;2022-09-23T04:26:26;101500.69;;;15.90;100.00
13013;BME280;22580;57.670;12.006;2022-09-23T04:28:54;101500.94;;;15.87;100.00
13013;BME280;22580;57.670;12.006;2022-09-23T04:31:21;101481.47;;;15.72;100.00
13013;BME280;22580;57.670;12.006;2022-09-23T04:33:48;101499.97;;;15.88;100.00
13013;BME280;22580;57.670;12.006;2022-09-23T04:36:20;101495.69;;;15.85;100.00
13013;BME280;22580;57.670;12.006;2022-09-23T04:38:51;101487.97;;;15.81;100.00
13013;BME280;22580;57.670;12.006;2022-09-23T04:41:20;101495.44;;;15.88;100.00
13013;BME280;22580;57.670;12.006;2022-09-23T04:43:47;101488.44;;;15.97;100.00
13013;BME280;22580;57.670;12.006;2022-09-23T04:46:14;101487.81;;;15.93;100.00
13013;BME280;22580;57.670;12.006;2022-09-23T04:48:42;101493.56;;;16.11;100.00
13013;BME280;22580;57.670;12.006;2022-09-23T04:51:10;101496.03;;;16.03;100.00
13013;BME280;22580;57.670;12.006;2022-09-23T04:53:39;101490.66;;;15.92;100.00
13013;BME280;22580;57.670;12.006;2022-09-23T04:56:08;101490.63;;;16.03;100.00
13013;BME280;22580;57.670;12.006;2022-09-23T04:58:38;101479.50;;;15.96;100.00
13013;BME280;22580;57.670;12.006;2022-09-23T05:01:10;101489.69;;;15.82;100.00
13013;BME280;22580;57.670;12.006;2022-09-23T05:03:37;101495.81;;;15.84;100.00
13013;BME280;22580;57.670;12.006;2022-09-23T05:06:04;101479.75;;;15.93;100.00
13013;BME280;22580;57.670;12.006;2022-09-23T05:08:32;101491.00;;;15.98;100.00
13013;BME280;22580;57.670;12.006;2022-09-23T05:11:00;101482.19;;;15.96;100.00
13013;BME280;22580;57.670;12.006;2022-09-23T05:13:29;101459.66;;;15.86;100.00
13013;BME280;22580;57.670;12.006;2022-09-23T05:15:58;101468.47;;;15.88;100.00
13013;BME280;22580;57.670;12.006;2022-09-23T05:18:26;101468.59;;;15.87;100.00
13013;BME280;22580;57.670;12.006;2022-09-23T05:20:53;101488.94;;;15.91;100.00
13013;BME280;22580;57.670;12.006;2022-09-23T05:23:20;101486.63;;;15.86;100.00
13013;BME280;22580;57.670;12.006;2022-09-23T05:25:48;101453.19;;;15.66;100.00
13013;BME280;22580;57.670;12.006;2022-09-23T05:28:15;101489.19;;;15.88;100.00
13013;BME280;22580;57.670;12.006;2022-09-23T05:30:44;101488.94;;;15.91;100.00
13013;BME280;22580;57.670;12.006;2022-09-23T05:33:13;101487.22;;;15.90;100.00
13013;BME280;22580;57.670;12.006;2022-09-23T05:35:45;101477.16;;;15.92;100.00
13013;BME280;22580;57.670;12.006;2022-09-23T05:38:13;101477.16;;;15.92;100.00
13013;BME280;22580;57.670;12.006;2022-09-23T05:40:41;101481.31;;;16.07;100.00
13013;BME280;22580;57.670;12.006;2022-09-23T05:43:09;101448.72;;;15.99;100.00
13013;BME280;22580;57.670;12.006;2022-09-23T05:45:36;101430.59;;;15.90;100.00
13013;BME280;22580;57.670;12.006;2022-09-23T05:48:03;101473.44;;;16.15;100.00
13013;BME280;22580;57.670;12.006;2022-09-23T05:50:32;101460.09;;;16.02;100.00
13013;BME280;22580;57.670;12.006;2022-09-23T05:52:58;101460.22;;;16.01;100.00
13013;BME280;22580;57.670;12.006;2022-09-23T05:55:33;101449.56;;;15.99;100.00
13013;BME280;22580;57.670;12.006;2022-09-23T05:58:22;101471.06;;;16.54;100.00
13013;BME280;22580;57.670;12.006;2022-09-23T06:00:50;101479.09;;;16.76;100.00
13013;BME280;22580;57.670;12.006;2022-09-23T06:03:21;101473.22;;;16.92;100.00
13013;BME280;22580;57.670;12.006;2022-09-23T06:05:53;101473.03;;;16.84;100.00
13013;BME280;22580;57.670;12.006;2022-09-23T06:08:20;101462.69;;;16.68;100.00
13013;BME280;22580;57.670;12.006;2022-09-23T06:10:48;101477.66;;;16.61;100.00
13013;BME280;22580;57.670;12.006;2022-09-23T06:13:15;101480.34;;;16.40;100.00
13013;BME280;22580;57.670;12.006;2022-09-23T06:15:42;101479.31;;;16.20;100.00
13013;BME280;22580;57.670;12.006;2022-09-23T06:18:10;101483.91;;;16.41;100.00
13013;BME280;22580;57.670;12.006;2022-09-23T06:20:38;101465.81;;;16.20;100.00
13013;BME280;22580;57.670;12.006;2022-09-23T06:23:08;101482.03;;;16.09;100.00
13013;BME280;22580;57.670;12.006;2022-09-23T06:25:37;101473.28;;;16.28;100.00
13013;BME280;22580;57.670;12.006;2022-09-23T06:28:04;101474.88;;;16.83;100.00
13013;BME280;22580;57.670;12.006;2022-09-23T06:30:36;101474.88;;;17.04;100.00
13013;BME280;22580;57.670;12.006;2022-09-23T06:33:04;101478.63;;;17.13;100.00
13013;BME280;22580;57.670;12.006;2022-09-23T06:35:31;101467.88;;;17.01;100.00
13013;BME280;22580;57.670;12.006;2022-09-23T06:38:02;101476.38;;;16.97;100.00
13013;BME280;22580;57.670;12.006;2022-09-23T06:40:30;101444.09;;;16.95;100.00
13013;BME280;22580;57.670;12.006;2022-09-23T06:42:58;101473.53;;;17.19;100.00
13013;BME280;22580;57.670;12.006;2022-09-23T06:45:26;101467.34;;;17.08;100.00
13013;BME280;22580;57.670;12.006;2022-09-23T06:47:53;101468.03;;;17.00;100.00
13013;BME280;22580;57.670;12.006;2022-09-23T06:50:22;101483.31;;;17.11;100.00
13013;BME280;22580;57.670;12.006;2022-09-23T06:52:51;101496.53;;;17.14;100.00
13013;BME280;22580;57.670;12.006;2022-09-23T06:55:19;101483.56;;;17.08;100.00
13013;BME280;22580;57.670;12.006;2022-09-23T06:57:47;101477.44;;;17.06;100.00
13013;BME280;22580;57.670;12.006;2022-09-23T07:00:14;101482.03;;;17.15;100.00
13013;BME280;22580;57.670;12.006;2022-09-23T07:02:41;101474.94;;;16.93;100.00
13013;BME280;22580;57.670;12.006;2022-09-23T07:05:08;101481.41;;;17.01;100.00
13013;BME280;22580;57.670;12.006;2022-09-23T07:07:35;101465.88;;;17.24;100.00
13013;BME280;22580;57.670;12.006;2022-09-23T07:10:04;101468.78;;;17.32;100.00
13013;BME280;22580;57.670;12.006;2022-09-23T07:12:32;101472.09;;;16.94;100.00
13013;BME280;22580;57.670;12.006;2022-09-23T07:15:01;101467.97;;;16.90;100.00
13013;BME280;22580;57.670;12.006;2022-09-23T07:17:29;101459.16;;;17.49;100.00
13013;BME280;22580;57.670;12.006;2022-09-23T07:19:56;101466.69;;;17.76;100.00
13013;BME280;22580;57.670;12.006;2022-09-23T07:22:23;101469.03;;;18.10;100.00
13013;BME280;22580;57.670;12.006;2022-09-23T07:24:51;101468.75;;;18.32;100.00
13013;BME280;22580;57.670;12.006;2022-09-23T07:27:22;101461.63;;;18.31;100.00
13013;BME280;22580;57.670;12.006;2022-09-23T07:29:49;101460.47;;;18.24;100.00
13013;BME280;22580;57.670;12.006;2022-09-23T07:32:19;101465.91;;;18.33;100.00
13013;BME280;22580;57.670;12.006;2022-09-23T07:34:47;101465.03;;;18.33;100.00
13013;BME280;22580;57.670;12.006;2022-09-23T07:37:15;101443.41;;;18.14;100.00
13013;BME280;22580;57.670;12.006;2022-09-23T07:39:43;101462.06;;;18.36;100.00
13013;BME280;22580;57.670;12.006;2022-09-23T07:42:10;101465.91;;;18.43;100.00
13013;BME280;22580;57.670;12.006;2022-09-23T07:44:38;101419.75;;;18.25;100.00
13013;BME280;22580;57.670;12.006;2022-09-23T07:47:06;101448.25;;;18.49;100.00
13013;BME280;22580;57.670;12.006;2022-09-23T07:49:35;101463.47;;;18.30;100.00
13013;BME280;22580;57.670;12.006;2022-09-23T07:52:03;101446.09;;;18.43;100.00
13013;BME280;22580;57.670;12.006;2022-09-23T07:54:30;101461.50;;;18.71;100.00
13013;BME280;22580;57.670;12.006;2022-09-23T07:56:58;101455.94;;;18.53;100.00
13013;BME280;22580;57.670;12.006;2022-09-23T07:59:25;101452.38;;;18.53;100.00
13013;BME280;22580;57.670;12.006;2022-09-23T08:01:53;101454.94;;;18.45;100.00
13013;BME280;22580;57.670;12.006;2022-09-23T08:04:23;101455.09;;;18.62;100.00
13013;BME280;22580;57.670;12.006;2022-09-23T08:06:55;101449.53;;;18.74;100.00
13013;BME280;22580;57.670;12.006;2022-09-23T08:09:26;101463.78;;;18.85;100.00
13013;BME280;22580;57.670;12.006;2022-09-23T08:11:54;101453.38;;;18.71;100.00
13013;BME280;22580;57.670;12.006;2022-09-23T08:14:21;101426.72;;;18.38;100.00
13013;BME280;22580;57.670;12.006;2022-09-23T08:16:49;101426.88;;;18.65;100.00
13013;BME280;22580;57.670;12.006;2022-09-23T08:19:17;101456.66;;;18.55;100.00
13013;BME280;22580;57.670;12.006;2022-09-23T08:21:45;101453.66;;;18.87;100.00
13013;BME280;22580;57.670;12.006;2022-09-23T08:24:16;101454.63;;;19.06;100.00
13013;BME280;22580;57.670;12.006;2022-09-23T08:26:44;101454.44;;;19.07;100.00
13013;BME280;22580;57.670;12.006;2022-09-23T08:29:12;101454.00;;;19.12;100.00
13013;BME280;22580;57.670;12.006;2022-09-23T08:31:39;101450.59;;;19.47;99.37
13013;BME280;22580;57.670;12.006;2022-09-23T08:34:06;101455.50;;;19.71;98.69
13013;BME280;22580;57.670;12.006;2022-09-23T08:36:34;101450.13;;;19.88;99.15
13013;BME280;22580;57.670;12.006;2022-09-23T08:39:01;101440.44;;;19.86;98.09
13013;BME280;22580;57.670;12.006;2022-09-23T08:41:37;101448.25;;;20.07;96.96
13013;BME280;22580;57.670;12.006;2022-09-23T08:44:10;101435.25;;;20.10;96.07
13013;BME280;22580;57.670;12.006;2022-09-23T08:46:43;101439.91;;;20.18;96.04
13013;BME280;22580;57.670;12.006;2022-09-23T08:49:16;101432.28;;;20.04;96.13
13013;BME280;22580;57.670;12.006;2022-09-23T08:51:48;101442.69;;;20.08;96.45
13013;BME280;22580;57.670;12.006;2022-09-23T08:54:18;101434.94;;;20.13;97.20
13013;BME280;22580;57.670;12.006;2022-09-23T08:56:49;101433.66;;;20.53;96.14
13013;BME280;22580;57.670;12.006;2022-09-23T08:59:20;101421.22;;;20.50;94.26
13013;BME280;22580;57.670;12.006;2022-09-23T09:01:56;101433.47;;;20.37;94.07
13013;BME280;22580;57.670;12.006;2022-09-23T09:04:29;101427.50;;;20.33;94.39
13013;BME280;22580;57.670;12.006;2022-09-23T09:07:03;101416.41;;;20.26;94.37
13013;BME280;22580;57.670;12.006;2022-09-23T09:09:40;101424.97;;;20.49;94.29
13013;BME280;22580;57.670;12.006;2022-09-23T09:12:15;101387.84;;;20.22;93.85
13013;BME280;22580;57.670;12.006;2022-09-23T09:14:51;101407.94;;;20.29;94.04
13013;BME280;22580;57.670;12.006;2022-09-23T09:17:28;101404.44;;;20.19;94.71
13013;BME280;22580;57.670;12.006;2022-09-23T09:20:06;101395.00;;;20.06;94.79
13013;BME280;22580;57.670;12.006;2022-09-23T09:22:44;101410.59;;;20.21;95.12
13013;BME280;22580;57.670;12.006;2022-09-23T09:25:22;101401.50;;;20.30;94.52
13013;BME280;22580;57.670;12.006;2022-09-23T09:27:53;101390.00;;;20.37;93.80
13013;BME280;22580;57.670;12.006;2022-09-23T09:30:21;101349.06;;;20.12;93.63
13013;BME280;22580;57.670;12.006;2022-09-23T09:32:55;101381.97;;;20.27;93.70
13013;BME280;22580;57.670;12.006;2022-09-23T09:35:31;101399.56;;;20.84;93.03
13013;BME280;22580;57.670;12.006;2022-09-23T09:38:01;101373.25;;;20.59;93.19
13013;BME280;22580;57.670;12.006;2022-09-23T09:40:30;101394.38;;;20.99;92.09
13013;BME280;22580;57.670;12.006;2022-09-23T09:43:00;101392.25;;;20.85;92.36
13013;BME280;22580;57.670;12.006;2022-09-23T09:45:40;101392.84;;;20.97;91.29
13013;BME280;22580;57.670;12.006;2022-09-23T09:48:24;101394.41;;;20.73;91.39
13013;BME280;22580;57.670;12.006;2022-09-23T09:50:56;101381.84;;;20.72;91.99
13013;BME280;22580;57.670;12.006;2022-09-23T09:53:42;101386.06;;;21.01;90.52
13013;BME280;22580;57.670;12.006;2022-09-23T09:56:12;101381.50;;;21.27;88.81
13013;BME280;22580;57.670;12.006;2022-09-23T09:58:44;101384.53;;;21.24;88.16
13013;BME280;22580;57.670;12.006;2022-09-23T10:01:21;101385.13;;;21.44;87.92
13013;BME280;22580;57.670;12.006;2022-09-23T10:03:49;101349.63;;;21.53;87.93
13013;BME280;22580;57.670;12.006;2022-09-23T10:06:19;101370.72;;;21.68;87.24
13013;BME280;22580;57.670;12.006;2022-09-23T10:09:09;101364.94;;;21.54;88.36
13013;BME280;22580;57.670;12.006;2022-09-23T10:11:37;101360.88;;;21.58;88.91
13013;BME280;22580;57.670;12.006;2022-09-23T10:14:10;101368.03;;;21.59;89.44
13013;BME280;22580;57.670;12.006;2022-09-23T10:16:38;101374.31;;;21.60;89.70
13013;BME280;22580;57.670;12.006;2022-09-23T10:19:14;101372.31;;;21.28;90.82
13013;BME280;22580;57.670;12.006;2022-09-23T10:21:42;101365.63;;;21.56;90.71
13013;BME280;22580;57.670;12.006;2022-09-23T10:24:20;101362.19;;;21.46;91.13
13013;BME280;22580;57.670;12.006;2022-09-23T10:26:54;101362.84;;;20.80;91.92
13013;BME280;22580;57.670;12.006;2022-09-23T10:29:28;101367.50;;;20.62;94.25
13013;BME280;22580;57.670;12.006;2022-09-23T10:32:18;101354.97;;;21.29;92.08
13013;BME280;22580;57.670;12.006;2022-09-23T10:34:48;101354.19;;;21.45;90.24
13013;BME280;22580;57.670;12.006;2022-09-23T10:37:19;101356.72;;;21.38;89.66
13013;BME280;22580;57.670;12.006;2022-09-23T10:39:48;101363.16;;;21.29;86.43
13013;BME280;22580;57.670;12.006;2022-09-23T10:42:46;101357.13;;;21.68;83.00
13013;BME280;22580;57.670;12.006;2022-09-23T10:45:37;101336.31;;;21.34;81.81
13013;BME280;22580;57.670;12.006;2022-09-23T10:48:27;101348.13;;;21.75;80.68
13013;BME280;22580;57.670;12.006;2022-09-23T10:51:03;101350.72;;;21.26;76.15
13013;BME280;22580;57.670;12.006;2022-09-23T10:53:40;101330.28;;;20.88;77.28
13013;BME280;22580;57.670;12.006;2022-09-23T10:56:23;101343.47;;;21.43;78.02
13013;BME280;22580;57.670;12.006;2022-09-23T10:59:02;101349.31;;;21.73;77.11
13013;BME280;22580;57.670;12.006;2022-09-23T11:01:43;101342.72;;;21.91;76.84
13013;BME280;22580;57.670;12.006;2022-09-23T11:07:26;101339.09;;;21.50;75.96
13013;BME280;22580;57.670;12.006;2022-09-23T11:10:22;101347.38;;;21.41;78.30
13013;BME280;22580;57.670;12.006;2022-09-23T11:13:00;101329.75;;;21.53;78.45
13013;BME280;22580;57.670;12.006;2022-09-23T11:15:36;101338.44;;;21.81;78.37
13013;BME280;22580;57.670;12.006;2022-09-23T11:18:25;101326.34;;;21.51;75.62
13013;BME280;22580;57.670;12.006;2022-09-23T11:21:19;101336.75;;;21.80;75.20
13013;BME280;22580;57.670;12.006;2022-09-23T11:24:02;101335.00;;;21.54;74.77
13013;BME280;22580;57.670;12.006;2022-09-23T11:26:42;101332.38;;;22.03;74.69
13013;BME280;22580;57.670;12.006;2022-09-23T11:29:24;101328.94;;;21.85;74.95
13013;BME280;22580;57.670;12.006;2022-09-23T11:32:08;101333.94;;;22.22;72.01
13013;BME280;22580;57.670;12.006;2022-09-23T11:35:01;101327.63;;;22.13;70.61
13013;BME280;22580;57.670;12.006;2022-09-23T11:37:32;101331.66;;;21.85;71.19
13013;BME280;22580;57.670;12.006;2022-09-23T11:40:05;101333.84;;;21.65;73.43
13013;BME280;22580;57.670;12.006;2022-09-23T11:42:46;101321.09;;;21.90;70.84
13013;BME280;22580;57.670;12.006;2022-09-23T11:45:19;101332.00;;;21.90;71.10
13013;BME280;22580;57.670;12.006;2022-09-23T11:47:53;101325.50;;;21.75;70.69
13013;BME280;22580;57.670;12.006;2022-09-23T11:50:26;101315.13;;;21.78;71.19
13013;BME280;22580;57.670;12.006;2022-09-23T11:52:59;101320.78;;;21.93;70.29
13013;BME280;22580;57.670;12.006;2022-09-23T11:55:31;101318.72;;;21.95;69.33
13013;BME280;22580;57.670;12.006;2022-09-23T11:58:07;101298.13;;;21.76;71.64
13013;BME280;22580;57.670;12.006;2022-09-23T12:00:40;101315.84;;;21.88;72.63
13013;BME280;22580;57.670;12.006;2022-09-23T12:03:13;101306.13;;;21.86;72.08
13013;BME280;22580;57.670;12.006;2022-09-23T12:05:47;101312.94;;;21.98;70.64
13013;BME280;22580;57.670;12.006;2022-09-23T12:08:23;101312.69;;;21.35;71.66
13013;BME280;22580;57.670;12.006;2022-09-23T12:10:57;101307.66;;;21.72;71.47
13013;BME280;22580;57.670;12.006;2022-09-23T12:13:35;101304.78;;;21.82;74.56
13013;BME280;22580;57.670;12.006;2022-09-23T12:16:16;101295.63;;;22.07;73.88
13013;BME280;22580;57.670;12.006;2022-09-23T12:18:57;101308.81;;;22.59;73.90
13013;BME280;22580;57.670;12.006;2022-09-23T12:21:44;101269.91;;;22.42;72.60
13013;BME280;22580;57.670;12.006;2022-09-23T12:24:26;101311.63;;;22.35;72.19
13013;BME280;22580;57.670;12.006;2022-09-23T12:27:07;101308.91;;;22.10;74.63
13013;BME280;22580;57.670;12.006;2022-09-23T12:29:37;101312.31;;;22.29;72.89
13013;BME280;22580;57.670;12.006;2022-09-23T12:32:06;101304.13;;;22.04;74.02
13013;BME280;22580;57.670;12.006;2022-09-23T12:34:39;101307.38;;;22.08;74.50
13013;BME280;22580;57.670;12.006;2022-09-23T12:37:09;101298.88;;;22.19;73.51
13013;BME280;22580;57.670;12.006;2022-09-23T12:39:37;101301.03;;;21.91;74.16
13013;BME280;22580;57.670;12.006;2022-09-23T12:42:10;101305.31;;;22.10;75.31
13013;BME280;22580;57.670;12.006;2022-09-23T12:44:42;101304.31;;;22.27;73.94
13013;BME280;22580;57.670;12.006;2022-09-23T12:47:29;101298.31;;;22.48;74.28
13013;BME280;22580;57.670;12.006;2022-09-23T12:50:53;101285.72;;;21.90;74.83
13013;BME280;22580;57.670;12.006;2022-09-23T12:53:54;101287.75;;;21.72;77.15
13013;BME280;22580;57.670;12.006;2022-09-23T12:56:27;101296.44;;;21.83;77.35
13013;BME280;22580;57.670;12.006;2022-09-23T12:59:09;101282.66;;;21.61;77.94
13013;BME280;22580;57.670;12.006;2022-09-23T13:01:38;101280.59;;;21.46;78.69